createdAt,value
2023-01-27T00:01:36.713Z,5.50
2023-01-27T00:04:05.568Z,5.20
2023-01-27T00:06:36.599Z,5.20
2023-01-27T00:09:05.076Z,5.20
2023-01-27T00:11:51.185Z,5.20
2023-01-27T00:14:20.835Z,5.50
2023-01-27T00:16:49.148Z,5.20
2023-01-27T00:19:19.830Z,5.20
2023-01-27T00:22:15.282Z,5.20
2023-01-27T00:24:43.587Z,5.20
2023-01-27T00:27:12.486Z,5.20
2023-01-27T00:29:42.368Z,5.20
2023-01-27T00:32:28.785Z,5.20
2023-01-27T00:34:57.139Z,5.30
2023-01-27T00:37:25.417Z,5.20
2023-01-27T00:39:53.739Z,5.20
2023-01-27T00:42:22.061Z,5.20
2023-01-27T00:45:09.983Z,5.30
2023-01-27T00:47:38.294Z,5.30
2023-01-27T00:50:08.500Z,5.30
2023-01-27T00:52:36.952Z,5.30
2023-01-27T00:55:05.956Z,5.30
2023-01-27T00:57:34.447Z,5.30
2023-01-27T01:00:04.716Z,5.30
2023-01-27T01:02:33.142Z,5.30
2023-01-27T01:05:01.488Z,5.30
2023-01-27T01:07:30.535Z,5.30
2023-01-27T01:09:58.833Z,5.20
2023-01-27T01:12:27.188Z,5.30
2023-01-27T01:14:55.482Z,5.30
2023-01-27T01:17:25.163Z,5.30
2023-01-27T01:19:53.470Z,5.30
2023-01-27T01:22:21.875Z,5.30
2023-01-27T01:24:50.225Z,5.30
2023-01-27T01:27:18.607Z,5.50
2023-01-27T01:29:46.952Z,5.30
2023-01-27T01:32:15.275Z,5.50
2023-01-27T01:34:45.025Z,5.30
2023-01-27T01:37:13.321Z,5.60
2023-01-27T01:39:42.910Z,5.30
2023-01-27T01:42:11.249Z,5.30
2023-01-27T01:44:45.655Z,5.30
2023-01-27T01:47:17.870Z,5.30
2023-01-27T01:49:49.083Z,5.30
2023-01-27T01:52:22.833Z,5.30
2023-01-27T01:54:55.207Z,5.30
2023-01-27T01:57:29.825Z,5.30
2023-01-27T02:00:03.196Z,5.30
2023-01-27T02:02:43.001Z,5.30
2023-01-27T02:05:17.290Z,5.30
2023-01-27T02:07:55.286Z,5.40
2023-01-27T02:10:25.856Z,5.30
2023-01-27T02:12:54.167Z,5.20
2023-01-27T02:15:22.687Z,5.30
2023-01-27T02:17:51.291Z,5.30
2023-01-27T02:20:29.370Z,5.60
2023-01-27T02:23:06.398Z,5.30
2023-01-27T02:26:00.195Z,5.30
2023-01-27T02:28:30.662Z,5.30
2023-01-27T02:30:59.713Z,5.20
2023-01-27T02:33:28.517Z,5.60
2023-01-27T02:36:03.292Z,5.30
2023-01-27T02:38:36.893Z,5.20
2023-01-27T02:41:16.082Z,5.20
2023-01-27T02:43:44.497Z,5.20
2023-01-27T02:46:12.925Z,5.30
2023-01-27T02:48:41.313Z,5.20
2023-01-27T02:51:10.071Z,5.20
2023-01-27T02:53:42.135Z,5.30
2023-01-27T02:56:12.194Z,5.20
2023-01-27T02:58:40.554Z,5.30
2023-01-27T03:01:25.021Z,5.30
2023-01-27T03:03:53.625Z,5.30
2023-01-27T03:06:22.428Z,5.30
2023-01-27T03:08:50.777Z,5.30
2023-01-27T03:11:40.761Z,5.30
2023-01-27T03:14:10.159Z,5.50
2023-01-27T03:16:56.231Z,5.30
2023-01-27T03:19:26.772Z,5.30
2023-01-27T03:21:56.543Z,5.30
2023-01-27T03:24:26.524Z,5.30
2023-01-27T03:26:59.615Z,5.30
2023-01-27T03:29:58.432Z,5.30
2023-01-27T03:32:30.488Z,5.30
2023-01-27T03:35:19.114Z,5.30
2023-01-27T03:38:08.028Z,5.30
2023-01-27T03:40:54.609Z,5.30
2023-01-27T03:43:41.878Z,5.50
2023-01-27T03:46:18.465Z,5.30
2023-01-27T03:48:50.788Z,5.50
2023-01-27T03:51:20.722Z,5.30
2023-01-27T03:53:49.315Z,5.30
2023-01-27T03:56:19.198Z,5.30
2023-01-27T03:58:50.879Z,5.60
2023-01-27T04:01:22.568Z,5.30
2023-01-27T04:04:09.572Z,5.30
2023-01-27T04:06:56.387Z,5.50
2023-01-27T04:09:28.322Z,5.70
2023-01-27T04:11:58.608Z,5.60
2023-01-27T04:14:31.351Z,5.30
2023-01-27T04:17:02.153Z,5.30
2023-01-27T04:19:31.309Z,5.30
2023-01-27T04:22:01.331Z,5.60
2023-01-27T04:24:30.182Z,5.30
2023-01-27T04:27:01.179Z,5.30
2023-01-27T04:29:33.396Z,5.30
2023-01-27T04:32:03.529Z,5.30
2023-01-27T04:34:32.058Z,5.30
2023-01-27T04:37:01.114Z,5.50
2023-01-27T04:39:29.452Z,5.20
2023-01-27T04:41:58.162Z,5.30
2023-01-27T04:44:26.984Z,5.40
2023-01-27T04:46:56.741Z,5.30
2023-01-27T04:49:26.774Z,5.50
2023-01-27T04:51:55.489Z,5.20
2023-01-27T04:54:23.808Z,5.20
2023-01-27T04:57:01.490Z,5.50
2023-01-27T04:59:30.023Z,5.20
2023-01-27T05:02:00.300Z,5.20
2023-01-27T05:04:28.659Z,5.20
2023-01-27T05:06:57.024Z,5.20
2023-01-27T05:09:25.626Z,5.20
2023-01-27T05:11:53.928Z,5.10
2023-01-27T05:14:23.563Z,5.10
2023-01-27T05:16:52.062Z,5.40
2023-01-27T05:19:21.818Z,5.20
2023-01-27T05:21:50.132Z,5.10
2023-01-27T05:24:18.524Z,5.30
2023-01-27T05:26:46.963Z,5.10
2023-01-27T05:29:15.399Z,5.10
2023-01-27T05:31:43.775Z,5.10
2023-01-27T05:34:12.123Z,5.10
2023-01-27T05:36:41.770Z,5.10
2023-01-27T05:39:12.722Z,5.10
2023-01-27T05:41:41.080Z,5.30
2023-01-27T05:44:13.127Z,5.10
2023-01-27T05:46:42.987Z,5.10
2023-01-27T05:49:11.430Z,5.10
2023-01-27T05:51:42.040Z,5.10
2023-01-27T05:54:10.970Z,5.10
2023-01-27T05:56:40.746Z,5.40
2023-01-27T05:59:09.564Z,5.40
2023-01-27T06:01:38.618Z,5.10
2023-01-27T06:04:07.570Z,5.20
2023-01-27T06:06:36.010Z,5.20
2023-01-27T06:09:05.913Z,5.20
2023-01-27T06:11:34.226Z,5.20
2023-01-27T06:14:02.642Z,5.50
2023-01-27T06:16:31.161Z,5.20
2023-01-27T06:18:59.832Z,5.20
2023-01-27T06:21:28.262Z,5.30
2023-01-27T06:23:58.320Z,5.30
2023-01-27T06:26:28.180Z,5.30
2023-01-27T06:28:58.706Z,5.30
2023-01-27T06:31:27.537Z,5.50
2023-01-27T06:33:56.222Z,5.30
2023-01-27T06:36:24.920Z,5.30
2023-01-27T06:38:53.766Z,5.30
2023-01-27T06:41:22.159Z,5.30
2023-01-27T06:43:51.883Z,5.30
2023-01-27T06:46:20.286Z,5.30
2023-01-27T06:48:48.651Z,5.30
2023-01-27T06:51:17.356Z,5.30
2023-01-27T06:53:45.662Z,5.30
2023-01-27T06:56:16.320Z,5.40
2023-01-27T06:58:44.832Z,5.30
2023-01-27T07:01:14.584Z,5.40
2023-01-27T07:03:44.908Z,5.30
2023-01-27T07:06:15.063Z,5.50
2023-01-27T07:08:45.924Z,5.30
2023-01-27T07:11:14.437Z,5.30
2023-01-27T07:13:42.750Z,5.30
2023-01-27T07:16:11.113Z,5.30
2023-01-27T07:18:40.808Z,5.30
2023-01-27T07:21:09.149Z,5.60
2023-01-27T07:23:37.451Z,5.60
2023-01-27T07:26:19.158Z,5.40
2023-01-27T07:28:51.755Z,5.40
2023-01-27T07:31:20.191Z,5.30
2023-01-27T07:33:49.966Z,5.40
2023-01-27T07:36:18.295Z,5.30
2023-01-27T07:38:46.892Z,5.30
2023-01-27T07:41:15.243Z,5.30
2023-01-27T07:43:43.559Z,5.60
2023-01-27T07:46:11.967Z,5.30
2023-01-27T07:48:40.356Z,5.30
2023-01-27T07:51:13.349Z,5.60
2023-01-27T07:53:41.783Z,5.40
2023-01-27T07:56:12.027Z,5.40
2023-01-27T07:58:40.851Z,5.70
2023-01-27T08:01:10.847Z,5.40
2023-01-27T08:03:39.949Z,5.40
2023-01-27T08:06:12.149Z,5.40
2023-01-27T08:08:40.565Z,5.40
2023-01-27T08:11:11.738Z,5.40
2023-01-27T08:13:40.095Z,5.40
2023-01-27T08:16:13.855Z,5.40
2023-01-27T08:18:42.406Z,5.40
2023-01-27T08:21:14.259Z,5.40
2023-01-27T08:23:42.616Z,5.50
2023-01-27T08:26:10.970Z,5.40
2023-01-27T08:28:41.552Z,5.50
2023-01-27T08:31:12.282Z,5.50
2023-01-27T08:33:41.696Z,5.80
2023-01-27T08:36:15.219Z,5.50
2023-01-27T08:38:45.052Z,5.50
2023-01-27T08:41:16.203Z,5.50
2023-01-27T08:43:45.319Z,5.50
2023-01-27T08:46:13.868Z,5.80
2023-01-27T08:48:42.671Z,5.50
2023-01-27T08:51:15.222Z,5.50
2023-01-27T08:53:43.589Z,5.50
2023-01-27T08:56:15.832Z,5.50
2023-01-27T08:58:47.270Z,5.50
2023-01-27T11:04:50.599Z,5.80
2023-01-27T11:07:29.093Z,5.80
2023-01-27T11:10:01.498Z,6.00
2023-01-27T11:12:34.657Z,5.90
2023-01-27T11:15:15.616Z,6.00
2023-01-27T11:17:49.728Z,5.90
2023-01-27T11:20:30.889Z,5.90
2023-01-27T11:23:05.535Z,6.00
2023-01-27T11:25:47.551Z,6.00
2023-01-27T11:28:29.889Z,6.10
2023-01-27T11:31:14.574Z,6.00
2023-01-27T11:33:55.085Z,6.00
2023-01-27T11:36:26.074Z,6.00
2023-01-27T11:38:58.121Z,6.10
2023-01-27T11:41:27.559Z,6.20
2023-01-27T11:43:56.454Z,6.00
2023-01-27T11:46:25.975Z,6.10
2023-01-27T11:48:58.850Z,6.10
2023-01-27T11:51:41.436Z,6.10
2023-01-27T11:54:17.292Z,6.10
2023-01-27T11:56:50.208Z,6.10
2023-01-27T11:59:26.032Z,6.10
2023-01-27T12:02:02.968Z,6.20
2023-01-27T12:04:51.884Z,6.20
2023-01-27T12:07:35.674Z,6.20
2023-01-27T12:10:05.551Z,6.20
2023-01-27T12:12:39.328Z,6.20
2023-01-27T12:15:18.136Z,6.20
2023-01-27T12:17:50.681Z,6.30
2023-01-27T12:20:34.132Z,6.40
2023-01-27T12:23:23.464Z,6.20
2023-01-27T12:25:57.161Z,6.30
2023-01-27T12:28:31.364Z,6.30
2023-01-27T12:31:15.000Z,6.20
2023-01-27T12:33:50.608Z,6.30
2023-01-27T12:36:23.812Z,6.30
2023-01-27T12:38:57.451Z,6.30
2023-01-27T12:41:29.940Z,6.30
2023-01-27T12:44:10.136Z,6.40
2023-01-27T12:46:44.618Z,6.40
2023-01-27T12:49:15.860Z,6.50
2023-01-27T12:51:52.915Z,6.50
2023-01-27T12:54:25.965Z,6.40
2023-01-27T12:56:56.631Z,6.40
2023-01-27T12:59:27.143Z,6.50
2023-01-27T13:02:02.713Z,6.50
2023-01-27T13:04:32.411Z,6.50
2023-01-27T13:07:09.181Z,6.60
2023-01-27T13:09:48.961Z,6.50
2023-01-27T13:12:23.294Z,6.60
2023-01-27T13:14:56.137Z,6.60
2023-01-27T13:17:38.185Z,6.60
2023-01-27T13:20:19.051Z,6.70
2023-01-27T13:23:03.257Z,6.40
2023-01-27T13:25:44.271Z,6.50
2023-01-27T13:28:21.940Z,6.60
2023-01-27T13:30:57.892Z,6.50
2023-01-27T13:33:41.318Z,6.60
2023-01-27T13:36:18.680Z,6.50
2023-01-27T13:38:57.048Z,6.70
2023-01-27T13:41:37.492Z,6.60
2023-01-27T13:44:15.540Z,6.60
2023-01-27T13:46:45.771Z,6.50
2023-01-27T13:49:27.607Z,6.70
2023-01-27T13:51:56.397Z,6.60
2023-01-27T13:54:25.554Z,6.70
2023-01-27T13:57:16.003Z,6.70
2023-01-27T14:00:02.685Z,6.80
2023-01-27T14:03:07.396Z,6.70
2023-01-27T14:05:53.593Z,6.90
2023-01-27T14:08:45.417Z,6.70
2023-01-27T14:11:27.105Z,6.80
2023-01-27T14:14:16.356Z,6.80
2023-01-27T14:17:04.368Z,6.80
2023-01-27T14:19:53.786Z,6.80
2023-01-27T14:22:32.702Z,6.70
2023-01-27T14:25:14.694Z,6.80
2023-01-27T14:30:28.412Z,6.80
2023-01-27T14:33:08.387Z,6.80
2023-01-27T14:35:44.783Z,6.90
2023-01-27T14:38:24.030Z,6.90
2023-01-27T14:41:15.203Z,6.90
2023-01-27T14:43:55.453Z,6.90
2023-01-27T14:46:48.279Z,6.90
2023-01-27T14:49:31.583Z,7.00
2023-01-27T14:52:10.703Z,6.90
2023-01-27T14:55:05.055Z,6.90
2023-01-27T14:57:44.732Z,6.90
2023-01-27T15:00:34.728Z,6.90
2023-01-27T15:03:36.341Z,7.10
2023-01-27T15:06:16.811Z,6.90
2023-01-27T15:08:54.546Z,7.00
2023-01-27T15:11:45.124Z,7.00
2023-01-27T15:15:05.527Z,7.00
2023-01-27T15:17:49.626Z,7.00
2023-01-27T15:20:42.687Z,6.90
2023-01-27T15:23:33.403Z,6.90
2023-01-27T15:26:07.347Z,6.90
2023-01-27T15:28:42.008Z,7.00
2023-01-27T15:31:26.700Z,7.00
2023-01-27T15:33:59.039Z,6.90
2023-01-27T15:36:40.524Z,6.80
2023-01-27T15:39:25.972Z,6.90
2023-01-27T15:42:15.673Z,6.90
2023-01-27T15:45:01.256Z,6.90
2023-01-27T15:47:35.453Z,7.00
2023-01-27T15:50:15.684Z,7.00
2023-01-27T15:52:48.961Z,6.90
2023-01-27T15:55:27.851Z,6.90
2023-01-27T15:58:12.739Z,6.90
2023-01-27T16:00:43.875Z,7.00
2023-01-27T16:03:25.526Z,6.80
2023-01-27T16:05:59.763Z,7.00
2023-01-27T16:08:34.468Z,7.00
2023-01-27T16:11:40.101Z,6.90
2023-01-27T16:14:43.675Z,6.90
2023-01-27T16:17:28.231Z,6.90
2023-01-27T16:20:26.766Z,6.90
2023-01-27T16:23:02.778Z,7.00
2023-01-27T16:25:43.088Z,6.90
2023-01-27T16:28:19.899Z,7.00
2023-01-27T16:30:59.087Z,7.00
2023-01-27T16:33:34.644Z,6.90
2023-01-27T16:36:09.907Z,6.90
2023-01-27T16:38:42.647Z,6.90
2023-01-27T16:41:20.504Z,6.90
2023-01-27T16:43:53.417Z,6.90
2023-01-27T16:46:33.439Z,7.00
2023-01-27T16:49:05.817Z,7.00
2023-01-27T16:51:35.519Z,6.90
2023-01-27T16:54:20.888Z,6.80
2023-01-27T16:56:53.077Z,6.90
2023-01-27T16:59:26.784Z,6.90
2023-01-27T17:01:59.848Z,6.90
2023-01-27T17:04:31.850Z,7.00
2023-01-27T17:07:08.973Z,7.10
2023-01-27T17:09:43.668Z,7.10
2023-01-27T17:12:30.235Z,6.90
2023-01-27T17:15:00.655Z,6.90
2023-01-27T17:17:33.127Z,6.90
2023-01-27T17:20:04.858Z,7.00
2023-01-27T17:22:39.960Z,7.00
2023-01-27T17:25:17.947Z,7.10
2023-01-27T17:27:48.286Z,7.00
2023-01-27T17:30:24.204Z,7.00
2023-01-27T17:32:56.212Z,7.00
2023-01-27T17:35:27.379Z,7.10
2023-01-27T17:38:12.322Z,7.00
2023-01-27T17:40:44.316Z,7.00
2023-01-27T17:43:32.985Z,7.20
2023-01-27T17:46:18.514Z,7.20
2023-01-27T17:48:53.015Z,7.00
2023-01-27T17:51:25.856Z,7.00
2023-01-27T17:53:55.834Z,7.00
2023-01-27T17:56:30.265Z,7.10
2023-01-27T17:59:05.725Z,7.10
2023-01-27T18:01:34.968Z,7.00
2023-01-27T18:04:06.200Z,7.20
2023-01-27T18:06:35.630Z,7.00
2023-01-27T18:09:18.746Z,7.00
2023-01-27T18:11:58.145Z,7.20
2023-01-27T18:14:30.762Z,7.00
2023-01-27T18:17:19.988Z,7.00
2023-01-27T18:19:52.244Z,7.00
2023-01-27T18:22:21.790Z,7.00
2023-01-27T18:24:53.732Z,7.00
2023-01-27T18:27:30.011Z,7.00
2023-01-27T18:30:04.566Z,7.00
2023-01-27T18:32:40.352Z,7.00
2023-01-27T18:35:27.847Z,7.00
2023-01-27T18:38:01.546Z,7.00
2023-01-27T18:40:33.637Z,7.00
2023-01-27T18:43:04.550Z,7.10
2023-01-27T18:45:34.376Z,7.30
2023-01-27T18:48:03.929Z,7.00
2023-01-27T18:50:32.372Z,7.00
2023-01-27T18:53:01.121Z,7.00
2023-01-27T18:55:31.195Z,7.00
2023-01-27T18:58:01.329Z,7.00
2023-01-27T19:00:37.442Z,7.00
2023-01-27T19:03:14.684Z,7.00
2023-01-27T19:05:43.362Z,7.00
2023-01-27T19:08:16.148Z,7.00
2023-01-27T19:10:46.513Z,7.00
2023-01-27T19:13:15.477Z,7.00
2023-01-27T19:15:50.166Z,6.90
2023-01-27T19:18:26.022Z,7.10
2023-01-27T19:20:54.941Z,6.90
2023-01-27T19:23:23.545Z,6.90
2023-01-27T19:25:55.072Z,6.90
2023-01-27T19:28:30.255Z,6.90
2023-01-27T19:31:01.792Z,6.90
2023-01-27T19:33:32.649Z,7.10
2023-01-27T19:36:04.687Z,6.90
2023-01-27T19:38:33.708Z,6.90
2023-01-27T19:41:02.536Z,6.90
2023-01-27T19:43:31.217Z,6.90
2023-01-27T19:46:01.222Z,6.90
2023-01-27T19:48:29.676Z,6.90
2023-01-27T19:50:58.049Z,6.90
2023-01-27T19:53:26.620Z,6.90
2023-01-27T19:55:58.149Z,7.00
2023-01-27T19:58:29.303Z,6.90
2023-01-27T20:00:57.910Z,6.90
2023-01-27T20:03:27.882Z,6.90
2023-01-27T20:05:56.277Z,6.80
2023-01-27T20:08:24.739Z,6.90
2023-01-27T20:10:53.289Z,7.10
2023-01-27T20:13:22.532Z,6.90
2023-01-27T20:15:52.128Z,6.90
2023-01-27T20:18:22.865Z,6.90
2023-01-27T20:20:53.892Z,6.90
2023-01-27T20:23:22.383Z,7.10
2023-01-27T20:25:50.899Z,6.90
2023-01-27T20:28:19.390Z,7.10
2023-01-27T20:30:48.114Z,6.90
2023-01-27T20:33:16.677Z,7.00
2023-01-27T20:35:45.358Z,6.90
2023-01-27T20:38:15.179Z,6.90
2023-01-27T20:40:43.866Z,7.10
2023-01-27T20:43:14.398Z,6.90
2023-01-27T20:45:44.289Z,6.90
2023-01-27T20:48:13.143Z,6.90
2023-01-27T20:50:41.661Z,6.90
2023-01-27T20:53:10.134Z,6.70
2023-01-27T20:55:39.977Z,7.00
2023-01-27T20:58:08.486Z,6.80
2023-01-27T21:00:37.246Z,7.00
2023-01-27T21:03:05.902Z,6.70
2023-01-27T21:05:34.608Z,6.90
2023-01-27T21:08:03.073Z,6.90
2023-01-27T21:10:31.553Z,6.90
2023-01-27T21:13:01.475Z,6.90
2023-01-27T21:15:30.057Z,7.00
2023-01-27T21:18:00.066Z,6.90
2023-01-27T21:20:28.539Z,6.90
2023-01-27T21:22:57.174Z,7.10
2023-01-27T21:25:25.931Z,6.90
2023-01-27T21:27:54.362Z,6.90
2023-01-27T21:30:25.673Z,7.10
2023-01-27T21:32:54.153Z,7.10
2023-01-27T21:35:22.719Z,6.90
2023-01-27T21:37:51.330Z,6.80
2023-01-27T21:40:19.957Z,6.90
2023-01-27T21:43:06.027Z,6.80
2023-01-27T21:45:35.819Z,6.80
2023-01-27T21:48:04.738Z,6.80
2023-01-27T21:50:33.417Z,7.00
2023-01-27T21:53:01.993Z,6.80
2023-01-27T21:55:31.678Z,7.00
2023-01-27T21:58:00.107Z,6.90
2023-01-27T22:00:30.128Z,6.80
2023-01-27T22:03:03.844Z,6.80
2023-01-27T22:05:34.904Z,6.80
2023-01-27T22:08:07.866Z,6.90
2023-01-27T22:10:36.392Z,6.80
2023-01-27T22:13:05.689Z,7.00
2023-01-27T22:15:34.528Z,7.00
2023-01-27T22:18:04.410Z,6.90
2023-01-27T22:20:32.846Z,6.80
2023-01-27T22:23:01.264Z,6.80
2023-01-27T22:25:29.877Z,6.80
2023-01-27T22:27:58.493Z,6.90
2023-01-27T22:30:27.066Z,6.90
2023-01-27T22:32:55.695Z,6.90
2023-01-27T22:35:25.894Z,6.90
2023-01-27T22:37:54.494Z,7.10
2023-01-27T22:40:22.980Z,7.00
2023-01-27T22:42:51.677Z,6.80
2023-01-27T22:45:20.120Z,6.90
2023-01-27T22:47:49.532Z,6.90
2023-01-27T22:50:18.627Z,6.80
2023-01-27T22:52:48.500Z,6.80
2023-01-27T22:55:17.280Z,6.80
2023-01-27T22:57:47.871Z,7.00
2023-01-27T23:00:17.696Z,6.90
2023-01-27T23:02:46.319Z,6.90
2023-01-27T23:05:15.215Z,6.90
2023-01-27T23:07:43.837Z,6.90
2023-01-27T23:10:13.856Z,6.90
2023-01-27T23:12:42.238Z,6.90
2023-01-27T23:15:11.688Z,6.90
2023-01-27T23:17:40.024Z,6.90
2023-01-27T23:20:10.578Z,6.90
2023-01-27T23:22:38.912Z,6.90
2023-01-27T23:25:09.179Z,6.90
2023-01-27T23:27:39.105Z,6.90
2023-01-27T23:30:11.354Z,6.90
2023-01-27T23:32:40.695Z,6.90
2023-01-27T23:35:10.131Z,6.90
2023-01-27T23:37:38.443Z,6.90
2023-01-27T23:40:08.676Z,7.20
2023-01-27T23:42:38.339Z,6.90
2023-01-27T23:45:07.707Z,6.90
2023-01-27T23:47:36.027Z,6.90
2023-01-27T23:50:05.406Z,6.90
2023-01-27T23:52:35.567Z,6.90
2023-01-27T23:55:04.181Z,6.80
2023-01-27T23:57:32.575Z,6.90
